Time;durP1;ratioP1;P1;durP2;ratioP2;P2;SDS_P1;SDS_P2;PMS_P1;PMS_P2;Temp;Humidity;BMP_temperature;BMP_pressure;BME280_temperature;BME280_humidity;BME280_pressure;Samples;Min_cycle;Max_cycle;Signal;HPM_P1;HPM_P2
2021/06/05 00:01:37;;;;;;;0.70;0.60;;;17.80;99.90;;;18.59;100.00;-21185.84;5047809;28;20506;-82
2021/06/05 00:04:08;;;;;;;0.70;0.60;;;17.80;99.90;;;18.56;100.00;-21185.19;5073523;28;20456;-82
2021/06/05 00:06:38;;;;;;;0.70;0.60;;;17.80;99.90;;;18.59;100.00;-21185.84;5055370;28;20888;-82
2021/06/05 00:09:08;;;;;;;0.70;0.60;;;17.80;99.90;;;18.59;100.00;-21185.84;5037057;28;20458;-82
2021/06/05 00:11:36;;;;;;;0.70;0.60;;;17.80;99.90;;;18.59;100.00;-21186.00;5037189;28;20440;-82
2021/06/05 00:14:08;;;;;;;0.70;0.60;;;17.80;99.90;;;18.58;100.00;-21185.59;5053692;28;20428;-82
2021/06/05 00:16:41;;;;;;;1.17;1.10;;;17.80;99.90;;;18.54;100.00;-21184.50;5063773;28;20441;-82
2021/06/05 00:19:11;;;;;;;0.70;0.60;;;17.80;99.90;;;18.45;100.00;-21182.16;5053225;28;20437;-83
2021/06/05 00:21:39;;;;;;;0.70;0.60;;;17.80;99.90;;;18.40;100.00;-21180.66;5052440;28;20471;-81
2021/06/05 00:24:08;;;;;;;0.70;0.60;;;17.70;99.90;;;18.39;100.00;-21180.38;5054531;28;20793;-83
2021/06/05 00:26:36;;;;;;;0.70;0.60;;;17.70;99.90;;;18.35;100.00;-21179.56;5037814;28;20463;-84
2021/06/05 00:29:05;;;;;;;0.70;0.60;;;17.70;99.90;;;18.33;100.00;-21179.00;5056049;28;20496;-83
2021/06/05 00:31:33;;;;;;;0.70;0.70;;;17.60;99.90;;;18.37;100.00;-21179.97;5073120;28;20432;-83
2021/06/05 00:34:03;;;;;;;0.70;0.60;;;17.70;99.90;;;18.42;100.00;-21181.22;5056528;28;20431;-83
2021/06/05 00:36:34;;;;;;;0.70;0.70;;;17.60;99.90;;;18.46;100.00;-21182.44;5055304;28;20848;-83
2021/06/05 00:39:06;;;;;;;0.70;0.60;;;17.70;99.90;;;18.57;100.00;-21185.31;5039009;28;20469;-82
2021/06/05 00:41:35;;;;;;;0.70;0.70;;;17.70;99.90;;;18.60;100.00;-21186.13;5072822;28;20466;-82
2021/06/05 00:44:09;;;;;;;0.70;0.60;;;17.80;99.90;;;18.52;100.00;-21183.94;5056877;28;20472;-82
2021/06/05 00:46:37;;;;;;;0.70;0.60;;;17.80;99.90;;;18.51;100.00;-21183.81;5065288;28;20498;-83
2021/06/05 00:49:09;;;;;;;0.80;0.80;;;17.80;99.90;;;18.38;100.00;-21180.13;5056255;28;20986;-82
2021/06/05 00:51:43;;;;;;;0.70;0.60;;;17.70;99.90;;;18.29;100.00;-21177.91;5071980;28;20474;-83
2021/06/05 00:54:15;;;;;;;0.70;0.60;;;17.60;99.90;;;18.14;100.00;-21173.81;5072469;28;20994;-82
2021/06/05 00:56:50;;;;;;;0.70;0.60;;;17.50;99.90;;;18.02;100.00;-21170.53;5044315;28;20425;-82
2021/06/05 00:59:18;;;;;;;0.70;0.60;;;17.40;99.90;;;17.95;100.00;-21168.59;5072122;28;20438;-83
2021/06/05 01:01:48;;;;;;;0.70;0.60;;;17.30;99.90;;;17.86;100.00;-21166.28;5072481;28;20459;-83
2021/06/05 01:04:18;;;;;;;0.80;0.60;;;17.20;99.90;;;17.78;100.00;-21164.22;5056117;28;20435;-82
2021/06/05 01:06:54;;;;;;;0.70;0.60;;;17.10;99.90;;;17.70;100.00;-21162.03;5049992;28;20847;-82
2021/06/05 01:09:32;;;;;;;0.70;0.70;;;17.10;99.90;;;17.66;100.00;-21160.94;5052464;28;20887;-82
2021/06/05 01:12:09;;;;;;;0.70;0.60;;;17.00;99.90;;;17.68;100.00;-21161.47;5052008;28;20450;-83
2021/06/05 01:14:46;;;;;;;0.70;0.60;;;16.90;99.90;;;17.75;100.00;-21163.25;5052480;28;20428;-82
2021/06/05 01:17:22;;;;;;;0.70;0.60;;;17.00;99.90;;;17.88;100.00;-21166.81;5053338;28;20441;-82
2021/06/05 01:19:58;;;;;;;0.80;0.60;;;17.10;99.90;;;17.91;100.00;-21167.50;5061310;28;20455;-82
2021/06/05 01:23:23;;;;;;;0.70;0.60;;;17.10;99.90;;;17.94;100.00;-21168.34;5035675;28;20499;-82
2021/06/05 01:26:14;;;;;;;0.70;0.60;;;17.20;99.90;;;17.92;100.00;-21167.78;5030458;28;20452;-83
2021/06/05 01:28:53;;;;;;;0.70;0.60;;;17.20;99.90;;;17.93;100.00;-21168.06;5051976;28;20526;-82
2021/06/05 01:31:26;;;;;;;0.70;0.67;;;17.20;99.90;;;17.93;100.00;-21168.06;5051837;28;20447;-82
2021/06/05 01:33:56;;;;;;;0.70;0.67;;;17.20;99.90;;;17.82;100.00;-21165.19;5052643;28;20477;-82
2021/06/05 01:36:26;;;;;;;0.70;0.60;;;17.20;99.90;;;17.71;100.00;-21162.28;5071709;28;20454;-82
2021/06/05 01:39:01;;;;;;;0.70;0.60;;;17.10;99.90;;;17.69;100.00;-21161.63;5055558;28;20459;-83
2021/06/05 01:41:33;;;;;;;0.70;0.60;;;17.10;99.90;;;17.73;100.00;-21162.72;5071896;28;20472;-83
2021/06/05 01:44:06;;;;;;;0.70;0.60;;;17.10;99.90;;;17.65;100.00;-21160.50;5072200;28;20898;-83
2021/06/05 01:46:37;;;;;;;0.70;0.67;;;17.00;99.90;;;17.58;100.00;-21158.88;5072679;28;20462;-82
2021/06/05 01:49:09;;;;;;;0.70;0.60;;;16.90;99.90;;;17.62;100.00;-21159.81;5058229;28;20442;-82
2021/06/05 01:51:46;;;;;;;0.70;0.60;;;17.00;99.90;;;17.61;100.00;-21159.56;5073691;28;20967;-83
2021/06/05 01:54:24;;;;;;;0.70;0.70;;;17.00;99.90;;;17.58;100.00;-21158.72;5059890;28;20469;-82
2021/06/05 01:57:20;;;;;;;0.70;0.67;;;16.90;99.90;;;17.61;100.00;-21159.56;5056286;28;20408;-82
2021/06/05 01:59:56;;;;;;;0.83;0.83;;;16.90;99.90;;;17.66;100.00;-21160.94;5055870;28;20512;-82
2021/06/05 02:02:38;;;;;;;1.07;0.97;;;17.00;99.90;;;17.65;100.00;-21160.50;5056884;28;20396;-82
2021/06/05 02:05:11;;;;;;;0.70;0.60;;;17.00;99.90;;;17.63;100.00;-21160.09;5057365;28;20511;-83
2021/06/05 02:07:40;;;;;;;0.70;0.60;;;17.00;99.90;;;17.68;100.00;-21161.34;5074880;28;20457;-82
2021/06/05 02:10:17;;;;;;;0.70;0.60;;;17.00;99.90;;;17.66;100.00;-21160.78;5059717;28;20442;-82
2021/06/05 02:12:52;;;;;;;0.70;0.60;;;17.00;99.90;;;17.67;100.00;-21161.19;5059622;28;20448;-82
2021/06/05 02:15:38;;;;;;;0.70;0.60;;;17.00;99.90;;;17.71;100.00;-21162.28;5060710;28;20462;-81
2021/06/05 02:18:16;;;;;;;0.70;0.60;;;17.00;99.90;;;17.73;100.00;-21162.84;5059072;28;20956;-82
2021/06/05 02:20:53;;;;;;;0.70;0.60;;;17.00;99.90;;;17.72;100.00;-21162.44;5058487;28;20501;-82
2021/06/05 02:23:29;;;;;;;0.70;0.60;;;17.00;99.90;;;17.74;100.00;-21163.13;5058952;28;20468;-82
2021/06/05 02:25:59;;;;;;;1.43;1.33;;;17.00;99.90;;;17.71;100.00;-21162.28;5058440;28;20447;-83
2021/06/05 02:28:31;;;;;;;0.80;0.77;;;17.00;99.90;;;17.57;100.00;-21158.47;5075372;28;20445;-81
2021/06/05 02:31:00;;;;;;;0.70;0.60;;;16.90;99.90;;;17.57;100.00;-21158.47;5058783;28;20529;-82
2021/06/05 02:33:30;;;;;;;0.70;0.60;;;16.90;99.90;;;17.49;100.00;-21156.41;5058744;28;20466;-82
2021/06/05 02:36:02;;;;;;;0.70;0.60;;;16.80;99.90;;;17.53;100.00;-21157.38;5086213;28;20500;-82
2021/06/05 02:38:36;;;;;;;0.70;0.70;;;16.80;99.90;;;17.53;100.00;-21157.38;5057280;28;20972;-81
2021/06/05 02:41:10;;;;;;;0.70;0.60;;;16.80;99.90;;;17.53;100.00;-21157.38;5065738;28;20481;-81
2021/06/05 02:43:42;;;;;;;0.70;0.70;;;16.80;99.90;;;17.55;100.00;-21157.91;5038667;28;20429;-81
2021/06/05 02:46:17;;;;;;;0.70;0.60;;;16.80;99.90;;;17.58;100.00;-21158.88;5038311;28;20423;-81
2021/06/05 02:48:50;;;;;;;0.70;0.60;;;16.80;99.90;;;17.64;100.00;-21160.38;5046968;28;20429;-81
2021/06/05 02:51:27;;;;;;;0.70;0.60;;;16.90;99.90;;;17.69;100.00;-21161.75;5075814;28;20589;-81
2021/06/05 02:53:56;;;;;;;0.70;0.70;;;16.90;99.90;;;17.73;100.00;-21162.84;5058422;28;20884;-80
2021/06/05 02:56:46;;;;;;;0.70;0.70;;;16.90;99.90;;;17.69;100.00;-21161.75;5072549;28;20433;-81
2021/06/05 02:59:17;;;;;;;0.70;0.60;;;16.90;99.90;;;17.90;100.00;-21167.38;5054690;28;20866;-81
2021/06/05 03:01:51;;;;;;;1.40;1.30;;;16.90;99.90;;;18.15;100.00;-21174.09;5055428;28;20461;-82
2021/06/05 03:04:19;;;;;;;0.70;0.60;;;17.00;99.90;;;17.94;100.00;-21168.34;5073991;28;20463;-81
2021/06/05 03:06:52;;;;;;;0.70;0.70;;;17.00;99.90;;;17.91;100.00;-21167.66;5058000;28;20461;-81
2021/06/05 03:09:21;;;;;;;0.70;0.70;;;17.00;99.90;;;17.91;100.00;-21167.50;5074627;28;20462;-82
2021/06/05 03:11:51;;;;;;;0.70;0.70;;;17.00;99.90;;;17.94;100.00;-21168.34;5091291;28;20443;-82
2021/06/05 03:14:21;;;;;;;0.70;0.60;;;17.00;99.90;;;18.00;100.00;-21169.97;5071661;28;20545;-82
2021/06/05 03:16:50;;;;;;;0.70;0.60;;;17.00;99.90;;;17.98;100.00;-21169.44;5055327;28;20480;-81
2021/06/05 03:19:19;;;;;;;0.70;0.70;;;17.00;99.90;;;17.99;100.00;-21169.84;5038190;28;20424;-82
2021/06/05 03:21:49;;;;;;;1.13;1.03;;;17.00;99.90;;;17.94;100.00;-21168.47;5054118;28;20458;-81
2021/06/05 03:24:24;;;;;;;0.70;0.60;;;17.00;99.90;;;18.38;100.00;-21180.13;5053894;28;20532;-81
2021/06/05 03:26:54;;;;;;;0.70;0.60;;;17.00;99.90;;;18.04;100.00;-21171.06;5073333;28;20433;-81
2021/06/05 03:29:24;;;;;;;0.70;0.60;;;17.00;99.90;;;17.98;100.00;-21169.56;5054272;28;20438;-80
2021/06/05 03:31:56;;;;;;;0.70;0.60;;;17.00;99.90;;;17.95;100.00;-21168.75;5055641;28;20437;-80
2021/06/05 03:34:27;;;;;;;0.70;0.60;;;17.10;99.90;;;17.89;100.00;-21166.97;5054214;28;20802;-80
2021/06/05 03:36:55;;;;;;;0.70;0.60;;;17.00;99.90;;;18.03;100.00;-21170.78;5073642;28;20498;-80
2021/06/05 03:39:23;;;;;;;0.73;0.73;;;17.00;99.90;;;17.88;100.00;-21166.69;5057464;28;20992;-81
2021/06/05 03:41:56;;;;;;;0.70;0.60;;;17.00;99.90;;;17.98;100.00;-21169.44;5073496;28;20501;-80
2021/06/05 03:44:26;;;;;;;0.70;0.60;;;17.00;99.90;;;17.95;100.00;-21168.59;5057178;28;20574;-81
2021/06/05 03:46:54;;;;;;;0.70;0.60;;;17.00;99.90;;;17.96;100.00;-21168.88;5066067;28;21023;-80
2021/06/05 03:49:23;;;;;;;0.70;0.60;;;17.10;99.90;;;18.07;100.00;-21172.03;5057634;28;20464;-80
2021/06/05 03:51:53;;;;;;;0.70;0.70;;;17.00;99.90;;;17.93;100.00;-21168.19;5072951;28;20480;-80
2021/06/05 03:54:24;;;;;;;0.70;0.60;;;17.00;99.90;;;17.83;100.00;-21165.44;5073577;28;20973;-80
2021/06/05 03:56:51;;;;;;;0.70;0.70;;;17.00;99.90;;;17.88;100.00;-21166.69;5055146;28;20424;-80
2021/06/05 03:59:19;;;;;;;0.70;0.60;;;17.00;99.90;;;18.00;100.00;-21169.97;5036783;28;20467;-80
2021/06/05 04:01:49;;;;;;;0.70;0.60;;;17.00;99.90;;;18.01;100.00;-21170.25;5053256;28;20836;-79
2021/06/05 04:04:19;;;;;;;0.70;0.60;;;17.00;99.90;;;17.99;100.00;-21169.69;5037066;28;20443;-78
2021/06/05 04:06:47;;;;;;;0.70;0.60;;;17.10;99.90;;;18.00;100.00;-21170.09;5053056;28;20457;-80
2021/06/05 04:09:15;;;;;;;0.80;0.80;;;17.10;99.90;;;18.21;100.00;-21175.59;5069533;28;20809;-80
2021/06/05 04:11:42;;;;;;;0.70;0.60;;;17.10;99.90;;;17.99;100.00;-21169.84;5053057;28;20472;-79
2021/06/05 04:14:10;;;;;;;0.70;0.60;;;17.10;99.90;;;17.96;100.00;-21169.00;5054754;28;20444;-80
2021/06/05 04:16:38;;;;;;;0.70;0.60;;;17.00;99.90;;;17.87;100.00;-21166.56;5053550;28;20466;-81
2021/06/05 04:19:07;;;;;;;0.70;0.60;;;17.10;99.90;;;17.99;100.00;-21169.69;5052949;28;20955;-80
2021/06/05 04:21:37;;;;;;;0.70;0.60;;;17.10;99.90;;;17.98;100.00;-21169.44;5054021;28;20460;-80
2021/06/05 04:24:08;;;;;;;0.70;0.60;;;17.10;99.90;;;17.89;100.00;-21167.09;5054141;28;20522;-80
2021/06/05 04:26:36;;;;;;;0.70;0.60;;;17.10;99.90;;;17.89;100.00;-21166.97;5052905;28;20441;-81
2021/06/05 04:29:06;;;;;;;0.70;0.70;;;17.00;99.90;;;17.77;100.00;-21163.94;5036959;28;20794;-80
2021/06/05 04:31:34;;;;;;;0.83;0.83;;;17.00;99.90;;;17.77;100.00;-21163.81;5036606;28;20868;-79
2021/06/05 04:34:02;;;;;;;0.70;0.60;;;17.00;99.90;;;17.94;100.00;-21168.34;5059536;28;20947;-79
2021/06/05 04:36:32;;;;;;;1.43;1.33;;;17.00;99.90;;;17.98;100.00;-21169.44;5056683;28;20525;-79
2021/06/05 04:38:59;;;;;;;0.70;0.60;;;17.00;99.90;;;18.02;100.00;-21170.66;5069838;28;21025;-78
2021/06/05 04:41:31;;;;;;;0.70;0.60;;;17.00;99.90;;;18.11;100.00;-21173.00;5056164;28;20473;-80
2021/06/05 04:44:00;;;;;;;0.70;0.60;;;17.10;99.90;;;18.02;100.00;-21170.53;5072749;28;20423;-80
2021/06/05 04:46:28;;;;;;;0.70;0.60;;;17.10;99.90;;;18.06;100.00;-21171.63;5072602;28;20422;-79
2021/06/05 04:48:57;;;;;;;0.70;0.60;;;17.10;99.90;;;17.92;100.00;-21167.78;5072861;28;20437;-79
2021/06/05 04:51:28;;;;;;;0.70;0.67;;;17.10;99.90;;;18.06;100.00;-21171.63;5071470;28;20533;-78
2021/06/05 04:53:58;;;;;;;0.70;0.60;;;17.10;99.90;;;17.98;100.00;-21169.44;5036030;28;20502;-79
2021/06/05 04:56:33;;;;;;;0.70;0.70;;;17.10;99.90;;;17.94;100.00;-21168.47;5049508;28;20462;-79
2021/06/05 04:59:02;;;;;;;0.70;0.60;;;17.10;99.90;;;17.94;100.00;-21168.34;5072703;28;20836;-79
2021/06/05 05:01:31;;;;;;;0.80;0.80;;;17.10;99.90;;;17.99;100.00;-21169.84;5071964;28;20557;-79
2021/06/05 05:03:59;;;;;;;0.70;0.60;;;17.10;99.90;;;18.08;100.00;-21172.31;5072390;28;20450;-79
2021/06/05 05:06:27;;;;;;;0.77;0.77;;;17.10;99.90;;;18.05;100.00;-21171.34;5071427;28;20450;-79
2021/06/05 05:08:57;;;;;;;0.70;0.70;;;17.10;99.90;;;18.39;100.00;-21180.53;5063415;28;20905;-79
2021/06/05 05:11:25;;;;;;;0.70;0.60;;;17.20;99.90;;;18.15;100.00;-21174.09;5067938;28;20508;-78
2021/06/05 05:13:52;;;;;;;0.70;0.60;;;17.20;99.90;;;18.16;100.00;-21174.34;5055683;28;20451;-79
2021/06/05 05:16:21;;;;;;;0.70;0.63;;;17.20;99.90;;;18.43;100.00;-21181.47;5072384;28;20410;-79
2021/06/05 05:18:49;;;;;;;0.70;0.70;;;17.20;99.90;;;18.28;100.00;-21177.66;5073359;28;20434;-79
2021/06/05 05:21:18;;;;;;;0.70;0.67;;;17.20;99.90;;;18.08;100.00;-21172.16;5070278;28;20433;-78
2021/06/05 05:23:45;;;;;;;0.70;0.60;;;17.20;99.90;;;18.29;100.00;-21177.78;5080972;28;20472;-78
2021/06/05 05:26:18;;;;;;;0.70;0.60;;;17.30;99.90;;;18.17;100.00;-21174.50;5071051;28;20437;-78
2021/06/05 05:28:46;;;;;;;0.70;0.60;;;17.20;99.90;;;18.43;100.00;-21181.47;5072033;28;20439;-79
2021/06/05 05:31:20;;;;;;;0.73;0.70;;;17.30;99.90;;;18.25;100.00;-21176.69;5071654;28;20513;-78
2021/06/05 05:33:48;;;;;;;0.70;0.70;;;17.40;99.90;;;18.48;100.00;-21182.84;5072007;28;20961;-78
2021/06/05 05:36:22;;;;;;;1.40;1.30;;;17.40;99.90;;;18.66;100.00;-21187.78;5071071;28;20431;-78
2021/06/05 05:38:50;;;;;;;0.70;0.60;;;17.50;99.90;;;18.43;100.00;-21181.47;5054887;28;20467;-78
2021/06/05 05:41:22;;;;;;;0.70;0.60;;;17.50;99.90;;;18.43;100.00;-21181.47;5072079;28;20474;-78
2021/06/05 05:43:51;;;;;;;0.70;0.70;;;17.50;99.90;;;18.39;100.00;-21180.53;5072122;28;20455;-78
2021/06/05 05:46:20;;;;;;;0.70;0.60;;;17.60;99.90;;;18.46;100.00;-21182.44;5071727;28;20526;-78
2021/06/05 05:48:49;;;;;;;0.70;0.60;;;17.60;99.90;;;18.52;100.00;-21183.94;5053892;28;20462;-78
2021/06/05 05:51:20;;;;;;;0.70;0.60;;;17.60;99.90;;;18.53;100.00;-21184.22;5034936;28;20531;-78
2021/06/05 05:53:48;;;;;;;0.73;0.70;;;17.60;99.90;;;18.68;100.00;-21188.31;5052963;28;20506;-77
2021/06/05 05:56:25;;;;;;;0.70;0.60;;;17.70;99.90;;;18.80;100.00;-21191.63;5062802;28;20432;-78
2021/06/05 05:58:56;;;;;;;0.70;0.60;;;17.80;99.90;;;18.79;100.00;-21191.22;5072426;28;20696;-77
2021/06/05 06:01:26;;;;;;;0.70;0.60;;;17.90;99.90;;;18.83;100.00;-21192.44;5044286;28;20944;-78
2021/06/05 06:03:56;;;;;;;0.70;0.60;;;17.90;99.90;;;18.79;100.00;-21191.22;5069929;28;21001;-77
2021/06/05 06:06:26;;;;;;;1.67;1.57;;;17.90;99.90;;;18.90;100.00;-21194.06;5039000;28;20558;-76
2021/06/05 06:08:57;;;;;;;0.70;0.60;;;17.90;99.90;;;18.94;100.00;-21195.16;5051451;28;20832;-77
2021/06/05 06:11:26;;;;;;;0.70;0.70;;;18.00;99.90;;;18.94;100.00;-21195.16;5050785;28;20442;-77
2021/06/05 06:13:56;;;;;;;0.70;0.60;;;18.00;99.90;;;18.88;100.00;-21193.66;5049995;28;20444;-77
2021/06/05 06:16:24;;;;;;;0.70;0.70;;;18.00;99.90;;;18.79;100.00;-21191.22;5044707;28;20464;-77
2021/06/05 06:18:52;;;;;;;1.03;1.03;;;18.00;99.90;;;18.71;100.00;-21189.00;5045908;28;20431;-76
2021/06/05 06:21:24;;;;;;;0.70;0.70;;;18.00;99.90;;;18.82;100.00;-21192.16;5073947;28;20464;-76
2021/06/05 06:23:53;;;;;;;0.70;0.70;;;18.00;99.90;;;18.73;100.00;-21189.69;5054393;28;20481;-76
2021/06/05 06:26:23;;;;;;;0.70;0.63;;;18.00;99.90;;;18.75;100.00;-21190.09;5061697;28;20429;-77
2021/06/05 06:28:55;;;;;;;0.70;0.60;;;18.00;99.90;;;18.76;100.00;-21190.38;5063973;28;20927;-76
2021/06/05 06:31:27;;;;;;;0.70;0.60;;;18.00;99.90;;;18.69;100.00;-21188.59;5071082;28;20542;-77
2021/06/05 06:33:54;;;;;;;0.73;0.70;;;18.10;99.90;;;18.79;100.00;-21191.34;5048628;28;20431;-76
2021/06/05 06:36:23;;;;;;;0.70;0.60;;;18.10;99.90;;;18.80;100.00;-21191.63;5057655;28;20436;-76
2021/06/05 06:38:53;;;;;;;0.70;0.60;;;18.00;99.90;;;18.88;100.00;-21193.66;5062520;28;20563;-76
2021/06/05 06:41:27;;;;;;;0.70;0.67;;;18.00;99.90;;;18.76;100.00;-21190.53;5072677;28;20490;-76
2021/06/05 06:43:59;;;;;;;0.70;0.60;;;18.10;99.90;;;18.78;100.00;-21190.94;5054780;28;20470;-77
2021/06/05 06:46:31;;;;;;;0.70;0.60;;;18.10;99.90;;;18.79;100.00;-21191.22;5056313;28;20812;-75
2021/06/05 06:49:00;;;;;;;0.80;0.70;;;18.10;99.90;;;18.82;100.00;-21192.16;5054698;28;20529;-77
2021/06/05 06:51:29;;;;;;;0.70;0.60;;;18.10;99.90;;;18.92;100.00;-21194.75;5054850;28;20441;-76
2021/06/05 06:53:57;;;;;;;0.70;0.70;;;18.20;99.90;;;19.08;100.00;-21198.88;5038022;28;21021;-76
2021/06/05 06:56:25;;;;;;;0.70;0.60;;;18.30;99.90;;;19.14;100.00;-21200.50;5060410;28;20433;-77
2021/06/05 06:58:53;;;;;;;0.70;0.70;;;18.40;99.90;;;19.30;100.00;-21204.88;5058224;28;20939;-76
2021/06/05 07:01:22;;;;;;;0.70;0.60;;;18.50;99.90;;;19.52;100.00;-21210.75;5074710;28;20485;-76
2021/06/05 07:03:50;;;;;;;0.70;0.67;;;18.60;99.90;;;19.41;100.00;-21207.75;5071143;28;20536;-76
2021/06/05 07:06:21;;;;;;;0.70;0.60;;;18.70;99.90;;;19.60;100.00;-21212.94;5060734;28;20451;-77
2021/06/05 07:08:51;;;;;;;0.70;0.60;;;18.80;99.90;;;20.19;100.00;-21228.81;5054114;28;20562;-76
2021/06/05 07:11:22;;;;;;;0.80;0.80;;;19.00;99.90;;;19.97;100.00;-21222.78;5063314;28;20436;-76
2021/06/05 07:13:50;;;;;;;0.80;0.80;;;19.20;99.90;;;20.28;100.00;-21231.25;5067230;28;20403;-76
2021/06/05 07:16:19;;;;;;;0.80;0.70;;;19.30;99.90;;;20.04;100.00;-21224.72;5065976;28;20408;-77
2021/06/05 07:18:48;;;;;;;0.80;0.70;;;19.50;99.90;;;20.10;100.00;-21226.34;5073853;28;20935;-76
2021/06/05 07:21:20;;;;;;;0.70;0.60;;;19.50;99.90;;;20.47;100.00;-21236.19;5064431;28;20836;-75
2021/06/05 07:23:49;;;;;;;0.70;0.60;;;19.60;99.90;;;20.40;100.00;-21234.25;5070473;28;20482;-75
2021/06/05 07:26:20;;;;;;;1.17;1.00;;;19.70;99.90;;;20.39;100.00;-21234.00;5037626;28;20793;-75
2021/06/05 07:28:52;;;;;;;0.80;0.70;;;19.70;99.90;;;20.58;100.00;-21239.19;5071255;28;20709;-75
2021/06/05 07:31:24;;;;;;;0.70;0.60;;;19.90;99.90;;;20.77;100.00;-21244.09;5074347;28;20435;-75
2021/06/05 07:33:54;;;;;;;0.70;0.60;;;20.00;99.90;;;20.97;100.00;-21249.69;5075623;28;20418;-75
2021/06/05 07:36:27;;;;;;;0.70;0.60;;;20.20;99.90;;;20.65;100.00;-21241.09;5071669;28;20454;-76
2021/06/05 07:38:54;;;;;;;0.70;0.60;;;20.30;99.90;;;20.63;100.00;-21240.41;5073910;28;20426;-75
2021/06/05 07:41:22;;;;;;;0.80;0.73;;;20.20;99.90;;;20.53;100.00;-21237.69;5085312;28;20810;-75
2021/06/05 07:43:50;;;;;;;0.70;0.60;;;20.30;99.90;;;21.03;100.00;-21251.19;5054474;28;20464;-75
2021/06/05 07:46:19;;;;;;;0.70;0.60;;;20.40;99.90;;;21.18;100.00;-21255.28;5053157;28;20438;-76
2021/06/05 07:48:48;;;;;;;0.70;0.60;;;20.50;99.90;;;21.29;100.00;-21258.03;5054216;28;20436;-75
2021/06/05 07:51:18;;;;;;;0.80;0.70;;;20.70;99.90;;;21.34;100.00;-21259.38;5052545;28;20407;-75
2021/06/05 07:53:47;;;;;;;0.70;0.60;;;20.80;99.90;;;21.42;100.00;-21261.56;5052713;28;20434;-76
2021/06/05 07:56:17;;;;;;;0.70;0.60;;;20.80;99.90;;;22.05;100.00;-21278.47;5055779;28;20421;-76
2021/06/05 07:58:45;;;;;;;0.90;0.80;;;21.00;99.90;;;21.66;100.00;-21267.97;5055745;28;20451;-76
2021/06/05 08:01:13;;;;;;;0.70;0.60;;;21.10;99.90;;;21.59;100.00;-21266.06;5074339;28;20433;-75
2021/06/05 08:03:41;;;;;;;0.70;0.60;;;21.10;99.90;;;21.27;100.00;-21257.59;5057056;28;20442;-75
2021/06/05 08:06:09;;;;;;;0.70;0.70;;;21.00;99.90;;;21.03;100.00;-21251.19;5073330;28;20486;-75
2021/06/05 08:08:38;;;;;;;0.70;0.57;;;20.90;99.90;;;21.31;100.00;-21258.69;5073042;28;20497;-76
2021/06/05 08:11:06;;;;;;;0.70;0.60;;;20.90;99.90;;;21.07;100.00;-20921.88;5054539;28;20509;-76
2021/06/05 08:13:36;;;;;;;0.70;0.60;;;20.70;99.90;;;20.77;100.00;-20743.28;5054468;28;20458;-76
2021/06/05 08:16:05;;;;;;;0.80;0.70;;;20.60;99.90;;;20.81;100.00;-20500.06;5056752;28;20509;-75
2021/06/05 08:18:33;;;;;;;0.80;0.70;;;20.50;99.90;;;21.33;100.00;-20072.53;5055731;28;20762;-76
2021/06/05 08:21:06;;;;;;;0.70;0.60;;;20.50;99.90;;;21.64;100.00;-19595.66;5056665;28;20440;-76
2021/06/05 08:23:35;;;;;;;0.70;0.60;;;20.70;99.90;;;21.81;100.00;-19393.19;5064654;28;20554;-77
2021/06/05 08:26:07;;;;;;;0.80;0.60;;;21.00;99.90;;;21.52;100.00;-18697.66;5055692;28;20509;-77
2021/06/05 08:28:36;;;;;;;0.70;0.60;;;21.10;99.90;;;21.87;100.00;-17968.22;5074368;28;20386;-77
2021/06/05 08:31:12;;;;;;;0.70;0.60;;;21.20;99.90;;;21.65;100.00;-17914.94;5073044;28;20406;-77
2021/06/05 08:33:40;;;;;;;0.70;0.60;;;21.30;99.90;;;21.87;100.00;-17194.69;5073091;28;20868;-77
2021/06/05 08:36:11;;;;;;;0.77;0.70;;;21.30;99.90;;;21.36;100.00;-16010.84;5055571;28;20933;-77
2021/06/05 08:38:39;;;;;;;0.70;0.60;;;21.20;99.90;;;21.28;100.00;-15539.72;5055465;28;20517;-76
2021/06/05 08:41:26;;;;;;;0.70;0.60;;;20.90;99.90;;;21.52;100.00;-14903.25;5083107;28;20983;-77
2021/06/05 08:43:57;;;;;;;0.70;0.60;;;20.80;99.90;;;21.76;100.00;-14531.66;5070217;28;20458;-77
2021/06/05 08:46:28;;;;;;;0.70;0.60;;;20.90;99.90;;;21.48;100.00;-13771.34;5061666;28;20423;-77
2021/06/05 08:48:59;;;;;;;0.70;0.60;;;21.00;99.90;;;21.38;100.00;-13483.88;5078006;28;20449;-78
2021/06/05 08:51:45;;;;;;;0.70;0.60;;;20.90;99.90;;;21.38;100.00;-12298.63;5072398;28;20413;-78
2021/06/05 08:54:32;;;;;;;0.70;0.70;;;21.00;99.90;;;21.60;100.00;-12130.19;5064688;28;20460;-77
2021/06/05 08:57:11;;;;;;;0.70;0.70;;;21.00;99.90;;;21.51;100.00;-11789.13;5058889;28;20747;-76
2021/06/05 08:59:42;;;;;;;0.73;0.70;;;21.10;99.90;;;21.09;100.00;-11385.81;5066692;28;20417;-77
2021/06/05 09:02:11;;;;;;;0.70;0.60;;;20.90;99.90;;;20.91;100.00;-11189.69;5050294;28;20440;-76
2021/06/05 09:04:40;;;;;;;0.70;0.70;;;20.80;99.90;;;21.09;100.00;-9949.97;5065147;28;20863;-76
2021/06/05 09:07:11;;;;;;;0.70;0.60;;;20.70;99.90;;;21.27;100.00;-9396.78;5066314;28;20442;-77
2021/06/05 09:09:43;;;;;;;0.70;0.60;;;20.70;99.90;;;21.04;100.00;-8510.63;5053800;28;20479;-78
2021/06/05 09:12:14;;;;;;;0.80;0.70;;;20.50;99.90;;;20.85;100.00;-7461.38;5066399;28;20439;-75
2021/06/05 09:14:42;;;;;;;0.70;0.60;;;20.50;99.90;;;20.65;100.00;-6806.13;5062147;28;20410;-77
2021/06/05 09:17:18;;;;;;;0.73;0.63;;;20.40;99.90;;;20.34;100.00;-7254.53;5069155;28;20436;-77
2021/06/05 09:20:13;;;;;;;0.80;0.70;;;20.10;99.90;;;20.06;100.00;-7449.84;5062730;28;20976;-77
2021/06/05 09:22:44;;;;;;;0.80;0.70;;;19.80;99.90;;;19.92;100.00;-7770.78;5060149;28;20527;-77
2021/06/05 09:25:31;;;;;;;0.70;0.60;;;19.60;99.90;;;19.86;100.00;-8051.16;5046347;28;20434;-76
2021/06/05 09:28:24;;;;;;;0.70;0.60;;;19.40;99.90;;;19.63;100.00;-8871.13;5053691;28;20425;-76
2021/06/05 09:31:11;;;;;;;0.87;0.87;;;19.20;99.90;;;19.42;100.00;-9838.31;5063381;28;20447;-77
2021/06/05 09:33:44;;;;;;;2.13;1.63;;;19.00;99.90;;;19.26;100.00;-10985.88;5062460;28;20438;-77
2021/06/05 09:36:18;;;;;;;0.80;0.70;;;18.90;99.90;;;19.22;100.00;-12246.06;5049781;28;20444;-77
2021/06/05 09:38:51;;;;;;;0.70;0.60;;;18.80;99.90;;;19.17;100.00;-13630.06;5066667;28;21053;-78
2021/06/05 09:41:28;;;;;;;0.80;0.70;;;18.70;99.90;;;19.20;100.00;-15093.50;5053428;28;20451;-77
2021/06/05 09:44:23;;;;;;;0.70;0.70;;;18.70;99.90;;;19.29;100.00;-16348.97;5062301;28;20462;-77
2021/06/05 09:47:00;;;;;;;0.70;0.67;;;18.70;99.90;;;19.39;100.00;-17012.09;5061474;28;20411;-77
2021/06/05 09:49:33;;;;;;;0.80;0.70;;;18.80;99.90;;;19.53;100.00;-17539.00;5063309;28;20527;-76
2021/06/05 09:52:09;;;;;;;0.70;0.60;;;18.80;99.90;;;19.67;100.00;-17887.72;5063153;28;20436;-78
2021/06/05 09:54:41;;;;;;;0.70;0.60;;;19.00;99.90;;;19.72;100.00;-18277.97;5062722;28;20468;-77
2021/06/05 09:57:35;;;;;;;0.90;0.90;;;19.10;99.90;;;19.84;100.00;-18781.66;5055694;28;20443;-77
2021/06/05 10:00:16;;;;;;;0.70;0.67;;;19.10;99.90;;;19.89;100.00;-19052.44;5078217;28;20929;-76
2021/06/05 10:02:48;;;;;;;0.70;0.60;;;19.10;99.90;;;20.03;100.00;-19091.38;5077414;28;20439;-76
2021/06/05 10:05:29;;;;;;;0.70;0.63;;;19.20;99.90;;;20.09;100.00;-19097.91;5060544;28;20451;-77
2021/06/05 10:08:18;;;;;;;0.70;0.60;;;19.20;99.90;;;19.97;100.00;-19176.56;5078941;28;20489;-77
2021/06/05 10:10:53;;;;;;;0.90;0.90;;;19.20;99.90;;;20.12;100.00;-19459.91;5081393;28;20538;-76
2021/06/05 10:13:29;;;;;;;0.70;0.70;;;19.30;99.90;;;20.31;100.00;-19441.41;5064888;28;20836;-77
2021/06/05 10:16:06;;;;;;;0.70;0.70;;;19.40;99.90;;;20.41;100.00;-19339.50;5081435;28;20414;-75
2021/06/05 10:18:43;;;;;;;0.70;0.63;;;19.40;99.90;;;20.55;100.00;-19011.91;5065400;28;20427;-76
2021/06/05 10:21:19;;;;;;;0.70;0.60;;;19.50;99.90;;;20.60;100.00;-18707.50;5046190;28;20439;-76
2021/06/05 10:23:52;;;;;;;0.70;0.60;;;19.60;99.90;;;20.92;100.00;-18126.09;5064026;28;20834;-77
2021/06/05 10:26:29;;;;;;;0.70;0.60;;;19.80;99.90;;;21.30;100.00;-17560.56;5063817;28;20432;-76